createdAt,value
2022-10-28T00:01:15.149Z,9.90
2022-10-28T00:03:44.938Z,9.80
2022-10-28T00:06:15.137Z,9.80
2022-10-28T00:08:43.767Z,9.70
2022-10-28T00:11:14.000Z,9.70
2022-10-28T00:13:43.010Z,9.70
2022-10-28T00:16:14.479Z,9.80
2022-10-28T00:18:42.883Z,9.80
2022-10-28T00:21:13.331Z,9.80
2022-10-28T00:23:41.652Z,9.80
2022-10-28T00:26:11.950Z,9.90
2022-10-28T00:28:43.714Z,9.90
2022-10-28T00:31:14.731Z,9.90
2022-10-28T00:33:43.254Z,9.80
2022-10-28T00:36:13.648Z,9.70
2022-10-28T00:38:42.785Z,9.70
2022-10-28T00:41:11.756Z,9.80
2022-10-28T00:43:42.091Z,9.90
2022-10-28T00:46:19.392Z,9.80
2022-10-28T00:48:51.874Z,9.70
2022-10-28T00:51:23.411Z,9.50
2022-10-28T00:53:53.368Z,9.40
2022-10-28T00:56:22.350Z,9.50
2022-10-28T00:58:51.226Z,9.60
2022-10-28T01:01:20.604Z,9.70
2022-10-28T01:03:48.943Z,9.50
2022-10-28T01:06:17.454Z,9.60
2022-10-28T01:08:45.368Z,9.60
2022-10-28T01:11:41.421Z,9.60
2022-10-28T01:14:19.124Z,9.60
2022-10-28T01:17:01.793Z,9.50
2022-10-28T01:20:00.463Z,9.40
2022-10-28T01:22:34.974Z,9.40
2022-10-28T01:25:29.767Z,9.40
2022-10-28T01:28:21.791Z,9.50
2022-10-28T01:31:09.276Z,9.40
2022-10-28T01:33:42.491Z,9.40
2022-10-28T01:36:16.498Z,9.40
2022-10-28T01:38:52.345Z,9.30
2022-10-28T01:41:29.836Z,9.30
2022-10-28T01:44:06.575Z,9.20
2022-10-28T01:46:40.863Z,9.30
2022-10-28T01:49:15.186Z,9.20
2022-10-28T01:51:47.701Z,9.20
2022-10-28T01:54:20.157Z,9.30
2022-10-28T01:56:49.781Z,9.30
2022-10-28T01:59:21.053Z,9.40
2022-10-28T02:01:50.677Z,9.30
2022-10-28T02:04:18.853Z,9.20
2022-10-28T02:06:51.353Z,9.20
2022-10-28T02:09:33.901Z,9.20
2022-10-28T02:12:20.886Z,9.20
2022-10-28T02:15:15.658Z,9.20
2022-10-28T02:17:56.280Z,9.20
2022-10-28T02:20:34.534Z,9.20
2022-10-28T02:23:17.658Z,9.20
2022-10-28T02:25:52.382Z,9.20
2022-10-28T02:28:27.484Z,9.20
2022-10-28T02:31:00.265Z,9.20
2022-10-28T02:33:32.709Z,9.10
2022-10-28T02:36:04.260Z,9.00
2022-10-28T02:38:35.727Z,9.00
2022-10-28T02:41:08.076Z,9.00
2022-10-28T02:43:39.140Z,9.00
2022-10-28T02:46:09.238Z,9.00
2022-10-28T02:48:43.440Z,8.90
2022-10-28T02:51:15.747Z,8.80
2022-10-28T02:53:54.804Z,8.90
2022-10-28T02:56:23.331Z,8.80
2022-10-28T02:58:51.641Z,8.80
2022-10-28T03:01:19.730Z,8.80
2022-10-28T03:03:49.160Z,8.80
2022-10-28T03:06:17.132Z,8.80
2022-10-28T03:08:45.189Z,8.80
2022-10-28T03:11:13.130Z,8.80
2022-10-28T03:13:41.114Z,8.80
2022-10-28T03:16:09.217Z,8.80
2022-10-28T03:18:37.149Z,8.80
2022-10-28T03:21:06.555Z,8.80
2022-10-28T03:23:34.573Z,8.80
2022-10-28T03:26:02.500Z,9.00
2022-10-28T03:28:30.413Z,9.00
2022-10-28T03:30:58.380Z,9.00
2022-10-28T03:33:26.546Z,9.10
2022-10-28T03:35:54.494Z,9.10
2022-10-28T03:38:23.833Z,9.10
2022-10-28T03:40:52.152Z,9.20
2022-10-28T03:43:20.078Z,9.10
2022-10-28T03:45:49.345Z,9.20
2022-10-28T03:48:17.460Z,9.20
2022-10-28T03:50:45.533Z,9.10
2022-10-28T03:53:13.554Z,9.10
2022-10-28T03:55:43.005Z,9.10
2022-10-28T03:58:10.945Z,9.10
2022-10-28T04:00:38.867Z,9.10
2022-10-28T04:03:06.813Z,9.10
2022-10-28T04:05:34.782Z,9.20
2022-10-28T04:08:02.715Z,9.20
2022-10-28T04:10:30.751Z,9.20
2022-10-28T04:13:02.494Z,9.20
2022-10-28T04:15:30.653Z,9.20
2022-10-28T04:17:58.628Z,9.30
2022-10-28T04:20:27.656Z,9.40
2022-10-28T04:22:57.183Z,9.40
2022-10-28T04:25:26.613Z,9.40
2022-10-28T04:27:54.993Z,9.50
2022-10-28T04:30:25.263Z,9.50
2022-10-28T04:32:53.284Z,9.50
2022-10-28T04:35:21.242Z,9.60
2022-10-28T04:37:49.215Z,9.60
2022-10-28T04:40:17.565Z,9.60
2022-10-28T04:42:45.495Z,9.50
2022-10-28T04:45:13.607Z,9.50
2022-10-28T04:47:42.915Z,9.60
2022-10-28T04:50:11.034Z,9.50
2022-10-28T04:52:39.049Z,9.40
2022-10-28T04:55:07.728Z,9.50
2022-10-28T04:57:35.749Z,9.50
2022-10-28T05:00:03.987Z,9.50
2022-10-28T05:02:32.047Z,9.50
2022-10-28T05:05:03.479Z,9.50
2022-10-28T05:07:31.713Z,9.60
2022-10-28T05:09:59.714Z,9.60
2022-10-28T05:12:27.700Z,9.60
2022-10-28T05:14:55.666Z,9.60
2022-10-28T05:17:23.599Z,9.60
2022-10-28T05:19:51.551Z,9.60
2022-10-28T05:22:20.855Z,9.50
2022-10-28T05:24:48.857Z,9.50
2022-10-28T05:27:17.465Z,9.40
2022-10-28T05:29:45.408Z,9.50
2022-10-28T05:32:13.409Z,9.60
2022-10-28T05:34:41.378Z,9.60
2022-10-28T05:37:09.313Z,9.60
2022-10-28T05:39:38.585Z,9.60
2022-10-28T05:42:06.694Z,9.60
2022-10-28T05:44:34.671Z,9.70
2022-10-28T05:47:02.620Z,9.70
2022-10-28T05:49:30.521Z,9.80
2022-10-28T05:51:58.474Z,9.80
2022-10-28T05:54:26.416Z,9.70
2022-10-28T05:56:55.850Z,9.70
2022-10-28T05:59:23.800Z,9.80
2022-10-28T06:01:51.800Z,9.90
2022-10-28T06:04:19.805Z,10.00
2022-10-28T06:06:47.763Z,10.00
2022-10-28T06:09:15.704Z,10.00
2022-10-28T06:11:42.093Z,10.10
2022-10-28T06:14:11.429Z,10.20
2022-10-28T06:16:39.350Z,10.30
2022-10-28T06:19:07.280Z,10.30
2022-10-28T06:21:35.576Z,10.40
2022-10-28T06:24:05.115Z,10.50
2022-10-28T06:26:33.932Z,10.60
2022-10-28T06:29:01.999Z,10.80
2022-10-28T06:31:31.880Z,10.90
2022-10-28T06:34:00.039Z,11.00
2022-10-28T06:36:28.099Z,11.30
2022-10-28T06:38:56.129Z,11.50
2022-10-28T06:41:24.124Z,11.60
2022-10-28T06:43:52.166Z,11.70
2022-10-28T06:46:20.301Z,11.70
2022-10-28T06:48:51.135Z,11.70
2022-10-28T06:51:19.154Z,11.70
2022-10-28T06:53:49.920Z,11.80
2022-10-28T06:56:18.045Z,11.90
2022-10-28T06:58:46.081Z,12.00
2022-10-28T07:01:14.040Z,12.00
2022-10-28T07:03:42.759Z,12.10
2022-10-28T07:06:12.131Z,12.10
2022-10-28T07:08:40.108Z,12.20
2022-10-28T07:11:08.199Z,12.40
2022-10-28T07:13:36.277Z,12.70
2022-10-28T07:16:05.203Z,12.90
2022-10-28T07:18:33.209Z,13.30
2022-10-28T07:21:01.950Z,13.60
2022-10-28T07:23:32.953Z,13.90
2022-10-28T07:26:01.066Z,14.20
2022-10-28T07:28:29.348Z,14.50
2022-10-28T07:31:02.098Z,15.00
2022-10-28T07:33:30.179Z,15.40
2022-10-28T07:35:58.189Z,15.80
2022-10-28T07:38:26.386Z,16.20
2022-10-28T07:40:55.772Z,16.50
2022-10-28T07:43:23.859Z,17.00
2022-10-28T07:45:57.355Z,18.10
2022-10-28T07:48:25.680Z,19.00
2022-10-28T07:50:53.589Z,19.70
2022-10-28T07:53:23.647Z,20.30
2022-10-28T07:55:59.929Z,20.70
2022-10-28T07:58:28.215Z,21.10
2022-10-28T08:00:56.229Z,21.80
2022-10-28T08:03:31.335Z,22.20
2022-10-28T08:06:03.162Z,23.10
2022-10-28T08:08:31.307Z,24.10
2022-10-28T08:11:00.617Z,24.50
2022-10-28T08:13:28.576Z,24.30
2022-10-28T08:15:56.888Z,25.00
2022-10-28T08:18:24.860Z,26.50
2022-10-28T08:20:52.827Z,27.30
2022-10-28T08:23:20.776Z,28.20
2022-10-28T08:25:49.935Z,28.50
2022-10-28T08:28:19.734Z,29.40
2022-10-28T08:30:57.193Z,30.60
2022-10-28T08:33:35.996Z,30.50
2022-10-28T08:36:03.888Z,31.50
2022-10-28T08:38:31.786Z,30.80
2022-10-28T08:41:09.239Z,30.50
2022-10-28T08:43:57.087Z,29.80
2022-10-28T08:46:39.923Z,28.30
2022-10-28T08:49:13.216Z,27.60
2022-10-28T08:51:46.713Z,26.90
2022-10-28T08:54:18.897Z,25.60
2022-10-28T08:56:48.601Z,24.40
2022-10-28T08:59:22.894Z,24.30
2022-10-28T09:04:29.903Z,23.60
2022-10-28T09:06:57.927Z,23.60
2022-10-28T09:09:25.955Z,23.30
2022-10-28T09:12:10.458Z,23.30
2022-10-28T09:14:55.625Z,23.80
2022-10-28T09:17:33.196Z,24.00
2022-10-28T09:20:06.972Z,25.00
2022-10-28T09:22:43.335Z,25.20
2022-10-28T09:25:23.514Z,25.60
2022-10-28T09:28:04.369Z,26.00
2022-10-28T09:30:40.982Z,26.90
2022-10-28T09:33:22.522Z,27.30
2022-10-28T09:35:51.988Z,27.90
2022-10-28T09:38:28.112Z,27.30
2022-10-28T09:41:02.931Z,26.50
2022-10-28T09:43:33.935Z,26.70
2022-10-28T09:46:09.082Z,26.30
2022-10-28T09:48:40.354Z,26.30
2022-10-28T09:51:17.015Z,25.80
2022-10-28T09:53:49.544Z,26.60
2022-10-28T09:56:17.505Z,28.10
2022-10-28T09:58:47.663Z,28.80
2022-10-28T10:01:18.978Z,29.80
2022-10-28T10:03:49.757Z,30.10
2022-10-28T10:06:21.090Z,29.70
2022-10-28T10:08:49.288Z,29.80
2022-10-28T10:11:28.614Z,29.50
2022-10-28T10:13:58.930Z,29.30
2022-10-28T10:16:39.909Z,28.80
2022-10-28T10:19:09.770Z,28.50
2022-10-28T10:21:46.292Z,28.50
2022-10-28T10:24:30.650Z,28.30
2022-10-28T10:27:01.362Z,29.20
2022-10-28T10:29:30.427Z,30.00
2022-10-28T10:32:17.740Z,30.00
2022-10-28T10:34:50.867Z,29.70
2022-10-28T10:37:21.706Z,29.70
2022-10-28T10:40:03.139Z,29.80
2022-10-28T10:42:31.241Z,29.00
2022-10-28T10:45:02.615Z,28.70
2022-10-28T10:47:31.991Z,28.30
2022-10-28T10:50:22.898Z,27.30
2022-10-28T10:52:53.708Z,28.20
2022-10-28T10:55:28.894Z,29.10
2022-10-28T10:57:57.541Z,28.30
2022-10-28T11:00:32.255Z,27.90
2022-10-28T11:03:02.425Z,27.60
2022-10-28T11:05:35.860Z,26.90
2022-10-28T11:08:07.658Z,26.20
2022-10-28T11:10:36.300Z,25.90
2022-10-28T11:13:24.766Z,25.90
2022-10-28T11:16:01.555Z,25.80
2022-10-28T11:18:41.611Z,26.10
2022-10-28T11:21:28.296Z,26.00
2022-10-28T11:24:08.899Z,26.10
2022-10-28T11:26:42.226Z,26.10
2022-10-28T11:29:12.594Z,26.50
2022-10-28T11:32:25.145Z,26.80
2022-10-28T11:35:09.496Z,27.00
2022-10-28T11:37:53.352Z,27.10
2022-10-28T11:40:32.270Z,27.00
2022-10-28T11:43:24.046Z,26.50
2022-10-28T11:45:59.261Z,26.50
2022-10-28T11:48:50.715Z,26.90
2022-10-28T11:51:32.166Z,27.10
2022-10-28T11:54:21.615Z,27.60
2022-10-28T11:56:53.123Z,27.10
2022-10-28T12:00:03.543Z,26.50
2022-10-28T12:02:53.213Z,26.60
2022-10-28T12:05:26.589Z,26.30
2022-10-28T12:08:05.962Z,26.10
2022-10-28T12:10:42.552Z,25.90
2022-10-28T12:13:20.943Z,25.80
2022-10-28T12:15:56.415Z,25.70
2022-10-28T12:18:30.610Z,25.90
2022-10-28T12:21:04.128Z,25.60
2022-10-28T12:23:36.609Z,25.70
2022-10-28T12:26:09.320Z,26.00
2022-10-28T12:28:43.080Z,26.00
2022-10-28T12:31:19.877Z,26.00
2022-10-28T12:33:50.530Z,26.00
2022-10-28T12:36:25.984Z,25.90
2022-10-28T12:39:00.700Z,26.00
2022-10-28T12:41:44.051Z,26.30
2022-10-28T12:44:15.578Z,26.40
2022-10-28T12:46:51.119Z,26.60
2022-10-28T12:49:26.240Z,27.20
2022-10-28T12:51:54.582Z,27.10
2022-10-28T12:54:29.674Z,27.30
2022-10-28T12:57:04.518Z,27.30
2022-10-28T12:59:36.338Z,27.00
2022-10-28T13:02:08.642Z,27.60
2022-10-28T13:04:38.543Z,27.90
2022-10-28T13:07:33.169Z,27.80
2022-10-28T13:10:18.214Z,27.60
2022-10-28T13:13:12.465Z,27.30
2022-10-28T13:16:16.077Z,27.20
2022-10-28T13:19:19.396Z,27.30
2022-10-28T13:22:19.431Z,27.30
2022-10-28T13:24:56.792Z,26.90
2022-10-28T13:27:26.992Z,27.20
2022-10-28T13:29:58.332Z,27.10
2022-10-28T13:32:35.643Z,26.80
2022-10-28T13:35:14.466Z,26.50
2022-10-28T13:37:46.801Z,26.40
2022-10-28T13:40:24.096Z,26.10
2022-10-28T13:42:53.779Z,26.00
2022-10-28T13:45:48.842Z,25.90
2022-10-28T13:48:47.930Z,25.60
2022-10-28T13:51:34.339Z,25.40
2022-10-28T13:54:02.508Z,25.60
2022-10-28T13:56:39.093Z,25.50
2022-10-28T13:59:33.476Z,25.70
2022-10-28T14:02:33.141Z,25.50
2022-10-28T14:04:59.093Z,25.90
2022-10-28T14:07:30.253Z,25.70
2022-10-28T14:10:17.596Z,25.90
2022-10-28T14:12:51.282Z,25.70
2022-10-28T14:15:29.658Z,25.70
2022-10-28T14:18:10.276Z,25.70
2022-10-28T14:20:58.803Z,25.50
2022-10-28T14:24:06.289Z,25.10
2022-10-28T14:27:13.282Z,25.10
2022-10-28T14:29:44.903Z,25.00
2022-10-28T14:32:43.183Z,25.00
2022-10-28T14:35:30.116Z,25.00
2022-10-28T14:38:48.042Z,25.00
2022-10-28T14:41:27.460Z,25.00
2022-10-28T14:44:06.755Z,24.80
2022-10-28T14:46:47.106Z,24.80
2022-10-28T14:49:21.453Z,24.60
2022-10-28T14:51:50.785Z,24.60
2022-10-28T14:54:30.926Z,24.50
2022-10-28T14:56:58.845Z,24.40
2022-10-28T14:59:30.672Z,24.20
2022-10-28T15:02:03.258Z,24.30
2022-10-28T15:04:32.875Z,24.30
2022-10-28T15:07:01.018Z,24.10
2022-10-28T15:09:32.113Z,23.80
2022-10-28T15:12:02.541Z,23.90
2022-10-28T15:14:33.915Z,23.80
2022-10-28T15:17:10.775Z,23.80
2022-10-28T15:19:40.525Z,23.60
2022-10-28T15:22:15.020Z,23.30
2022-10-28T15:24:46.240Z,23.20
2022-10-28T15:27:16.237Z,23.30
2022-10-28T15:29:44.543Z,23.20
2022-10-28T15:32:25.694Z,22.90
2022-10-28T15:34:55.091Z,22.80
2022-10-28T15:37:25.170Z,22.80
2022-10-28T15:40:12.360Z,22.60
2022-10-28T15:42:43.216Z,22.40
2022-10-28T15:45:21.894Z,22.30
2022-10-28T15:47:50.190Z,21.90
2022-10-28T15:50:32.178Z,21.60
2022-10-28T15:53:32.010Z,21.60
2022-10-28T15:56:18.251Z,21.30
2022-10-28T15:58:47.341Z,21.00
2022-10-28T16:01:39.349Z,20.70
2022-10-28T16:04:28.304Z,20.70
2022-10-28T16:06:58.974Z,20.50
2022-10-28T16:09:32.124Z,20.30
2022-10-28T16:12:03.480Z,20.20
2022-10-28T16:14:34.957Z,20.10
2022-10-28T16:17:08.284Z,20.10
2022-10-28T16:19:39.278Z,20.10
2022-10-28T16:22:12.825Z,20.00
2022-10-28T16:24:40.831Z,19.90
2022-10-28T16:27:19.727Z,19.80
2022-10-28T16:29:47.983Z,19.80
2022-10-28T16:32:17.161Z,19.60
2022-10-28T16:34:45.197Z,19.60
2022-10-28T16:37:22.149Z,19.50
2022-10-28T16:39:52.553Z,19.40
2022-10-28T16:42:21.747Z,19.40
2022-10-28T16:44:49.954Z,19.20
2022-10-28T16:47:20.503Z,19.20
2022-10-28T16:49:54.013Z,19.10
2022-10-28T16:52:29.650Z,19.00
2022-10-28T16:54:58.717Z,19.00
2022-10-28T16:57:27.528Z,18.90
2022-10-28T16:59:55.819Z,18.80
2022-10-28T17:02:26.986Z,18.80
2022-10-28T17:04:55.400Z,18.60
2022-10-28T17:07:23.437Z,18.50
2022-10-28T17:09:52.866Z,18.30
2022-10-28T17:12:23.054Z,18.40
2022-10-28T17:14:51.401Z,18.30
2022-10-28T17:17:19.751Z,18.20
2022-10-28T17:19:47.760Z,18.20
2022-10-28T17:22:15.774Z,18.10
2022-10-28T17:24:43.737Z,18.00
2022-10-28T17:27:13.799Z,17.90
2022-10-28T17:29:41.784Z,17.80
2022-10-28T17:32:09.791Z,17.70
2022-10-28T17:34:38.007Z,17.70
2022-10-28T17:37:07.513Z,17.60
2022-10-28T17:39:35.705Z,17.60
2022-10-28T17:42:03.786Z,17.40
2022-10-28T17:44:33.053Z,17.30
2022-10-28T17:47:01.056Z,17.30
2022-10-28T17:49:29.307Z,17.30
2022-10-28T17:51:57.214Z,17.20
2022-10-28T17:54:25.287Z,17.10
2022-10-28T17:56:53.302Z,17.10
2022-10-28T17:59:21.259Z,17.10
2022-10-28T18:01:50.638Z,17.00
2022-10-28T18:04:19.896Z,17.00
2022-10-28T18:06:48.152Z,16.90
2022-10-28T18:09:16.078Z,16.80
2022-10-28T18:11:44.093Z,16.80
2022-10-28T18:14:12.019Z,16.70
2022-10-28T18:16:39.973Z,16.70
2022-10-28T18:19:09.341Z,16.70
2022-10-28T18:21:37.343Z,16.70
2022-10-28T18:24:05.675Z,16.70
2022-10-28T18:26:35.074Z,16.70
2022-10-28T18:29:04.004Z,16.70
2022-10-28T18:31:33.307Z,16.60
2022-10-28T18:34:01.897Z,16.50
2022-10-28T18:36:34.492Z,16.40
2022-10-28T18:39:03.246Z,16.30
2022-10-28T18:41:32.313Z,16.30
2022-10-28T18:44:12.460Z,16.30
2022-10-28T18:46:40.754Z,16.20
2022-10-28T18:49:09.139Z,16.20
2022-10-28T18:51:38.765Z,16.20
2022-10-28T18:54:06.824Z,16.20
2022-10-28T18:56:35.111Z,16.10
2022-10-28T18:59:04.579Z,16.10
2022-10-28T19:01:33.016Z,16.00
2022-10-28T19:04:02.399Z,16.00
2022-10-28T19:06:33.929Z,16.10
2022-10-28T19:09:05.206Z,16.00
2022-10-28T19:11:45.028Z,15.90
2022-10-28T19:14:13.021Z,15.90
2022-10-28T19:16:40.971Z,15.90
2022-10-28T19:19:08.960Z,15.90
2022-10-28T19:21:36.924Z,15.90
2022-10-28T19:24:06.872Z,15.90
2022-10-28T19:26:34.930Z,15.90
2022-10-28T19:29:05.152Z,15.90
2022-10-28T19:31:36.836Z,15.80
2022-10-28T19:34:05.614Z,15.80
2022-10-28T19:36:33.852Z,15.70
2022-10-28T19:39:02.006Z,15.70
2022-10-28T19:41:34.442Z,15.70
2022-10-28T19:44:03.569Z,15.70
2022-10-28T19:46:33.626Z,15.70
2022-10-28T19:49:04.477Z,15.70
2022-10-28T19:51:34.348Z,15.70
2022-10-28T19:54:04.914Z,15.70
2022-10-28T19:56:35.956Z,15.70
2022-10-28T19:59:05.445Z,15.50
2022-10-28T20:01:35.522Z,15.50
2022-10-28T20:04:03.727Z,15.60
2022-10-28T20:06:33.606Z,15.60
2022-10-28T20:09:01.809Z,15.70
2022-10-28T20:11:32.459Z,15.60
2022-10-28T20:14:14.418Z,15.70
2022-10-28T20:16:46.079Z,15.70
2022-10-28T20:19:14.439Z,15.60
2022-10-28T20:21:47.055Z,15.60
2022-10-28T20:24:15.604Z,15.50
2022-10-28T20:26:43.785Z,15.40
2022-10-28T20:29:16.456Z,15.50
2022-10-28T20:31:44.733Z,15.60
2022-10-28T20:34:12.801Z,15.60
2022-10-28T20:36:44.056Z,15.50
2022-10-28T20:39:15.255Z,15.60
2022-10-28T20:41:45.199Z,15.60
2022-10-28T20:44:14.668Z,15.50
2022-10-28T20:46:44.996Z,15.50
2022-10-28T20:49:13.253Z,15.40
2022-10-28T20:51:41.614Z,15.40
2022-10-28T20:54:09.743Z,15.40
2022-10-28T20:56:40.269Z,15.40
2022-10-28T20:59:08.538Z,15.40
2022-10-28T21:01:44.018Z,15.40
2022-10-28T21:04:12.995Z,15.40
2022-10-28T21:06:41.418Z,15.50
2022-10-28T21:09:10.066Z,15.50
2022-10-28T21:11:37.992Z,15.50
2022-10-28T21:14:05.928Z,15.50
2022-10-28T21:16:34.239Z,15.50
2022-10-28T21:19:03.855Z,15.50
2022-10-28T21:21:32.350Z,15.50
2022-10-28T21:24:00.405Z,15.50
2022-10-28T21:26:28.313Z,15.60
2022-10-28T21:28:56.349Z,15.60
2022-10-28T21:31:24.762Z,15.60
2022-10-28T21:33:52.994Z,15.50
2022-10-28T21:36:23.010Z,15.50
2022-10-28T21:38:54.188Z,15.40
2022-10-28T21:41:23.115Z,15.40
2022-10-28T21:43:52.556Z,15.30
2022-10-28T21:46:21.716Z,15.40
2022-10-28T21:48:49.810Z,15.40
2022-10-28T21:51:18.425Z,15.40
2022-10-28T21:53:47.910Z,15.50
2022-10-28T21:56:19.162Z,15.50
2022-10-28T21:58:48.547Z,15.50
2022-10-28T22:01:18.140Z,15.50
2022-10-28T22:03:46.146Z,15.50
2022-10-28T22:06:14.454Z,15.50
2022-10-28T22:08:42.641Z,15.50
2022-10-28T22:11:14.652Z,15.50
2022-10-28T22:13:42.971Z,15.50
2022-10-28T22:16:13.207Z,15.50
2022-10-28T22:18:41.387Z,15.50
2022-10-28T22:21:11.724Z,15.60
2022-10-28T22:23:39.918Z,15.60
2022-10-28T22:26:09.680Z,15.60
2022-10-28T22:28:39.513Z,15.60
2022-10-28T22:31:09.173Z,15.60
2022-10-28T22:33:37.796Z,15.70
2022-10-28T22:36:08.019Z,15.60
2022-10-28T22:38:36.221Z,15.60
2022-10-28T22:41:07.240Z,15.60
2022-10-28T22:43:35.580Z,15.60
2022-10-28T22:46:05.309Z,15.60
2022-10-28T22:48:33.869Z,15.60
2022-10-28T22:51:02.032Z,15.60
2022-10-28T22:53:29.981Z,15.50
2022-10-28T22:55:58.531Z,15.40
2022-10-28T22:58:27.968Z,15.30
2022-10-28T23:01:06.394Z,15.30
2022-10-28T23:03:38.951Z,15.20
2022-10-28T23:06:07.565Z,15.00
2022-10-28T23:08:38.074Z,14.90
2022-10-28T23:11:06.970Z,14.80
2022-10-28T23:13:35.205Z,14.70
2022-10-28T23:16:08.921Z,14.70
2022-10-28T23:18:37.296Z,14.50
2022-10-28T23:21:07.184Z,14.40
2022-10-28T23:23:35.222Z,14.20
2022-10-28T23:26:03.267Z,14.00
2022-10-28T23:28:31.694Z,13.80
2022-10-28T23:31:03.063Z,13.70
2022-10-28T23:33:33.368Z,13.70
2022-10-28T23:36:03.584Z,13.60
2022-10-28T23:38:31.730Z,13.50
2022-10-28T23:41:01.168Z,13.50
2022-10-28T23:43:30.164Z,13.40
2022-10-28T23:45:59.445Z,13.30
2022-10-28T23:48:28.683Z,13.20
2022-10-28T23:50:58.512Z,13.00
2022-10-28T23:53:26.510Z,13.00
2022-10-28T23:55:54.635Z,13.00
2022-10-28T23:58:23.541Z,12.90
